Huvudsida
METAR-TAF:

METAR-TAF

Flygplatser :

Rarotonga International Airport

Rarotonga, Cooköarna

latitud: 21-12S, longitud: 159-49W, höjd: 7 m

Aktuellt väderrapport

Denna rapport gjordes för 8 minuter sedan, klockan 00:00 UTC
Vind 6 kt från ost/nordost
Temperatur 29°C
Fuktighet 84%
Tryck 1011 hPa
Sikt 10 km eller mer

METAR: NCRG 250000Z AUTO 07006KT 9999 FEW041/// SCT100/// 29/26 Q1011

Tid: 14:08 (00:08 UTC)

Väderprognos

Denna rapport gjordes för 43 minuter sedan, klockan 23:25 UTC
Prognos gäller från 25 kl. 00 UTC till 25 kl. 24 UTC
Vind 10 kt från ost/nordost
Sikt 10 km eller mer
Få moln på en höjd av 2500 ft
Spridda moln på en höjd av 5000 ft
Sannolikhet 30% :
Temporärt
från 25 kl. 00 UTC till 25 kl. 24 UTC
Sikt: 5000 m
Brutna moln på en höjd av 1500 ft
regnskurar

TAF: NCRG 242325Z 2500/2524 06010KT 9999 FEW025 SCT050 PROB30 TEMPO 2500/2524 5000 SHRA BKN015

Aktuella väderrapporter och prognoser från 4000 flygplatser (METAR- och TAF-rapporter).

De tillgängliga stationerna syns som gula och röda prickar på kartan.

För musen över prickarna för att se namnen på stationerna.

Klicka sedan för att få väderrapporter och prognoser.

För att ändra kartan: Klicka på de gröna knapparna med ett svart kors på för att zooma in; den gröna knappen med ett streck på för att zooma ut; eller på de gröna pilarna för angränsande kartor.


METAR-TAF: